Flight Track Log - Related Links

Times and Time Zones

All times are in EDT time to prevent confusion due to time zone crossing. See the SWA1969 flight status page for this flight to view local times or setup timezone preferences in your user account.

Time Position Orientation Groundspeed Altitude Reporting Facility
EDT Latitude Longitude Course Direction KTS MPH feet Rate Location/Type
Mon 11:22:03 AM 39.3167 -94.7167 29° Northeast 152 175 2,000  Level Kansas City TRACON
Mon 11:23:07 AM 39.3644 -94.6825 29° Northeast 192 221 3,400 1,728 Climbing Kansas City Center
Mon 11:24:08 AM 39.4167 -94.6367 34° Northeast 231 266 5,600 2,323 Climbing Kansas City Center
Mon 11:25:11 AM 39.4831 -94.5569 43° Northeast 301 346 8,200 2,419 Climbing Kansas City Center
Mon 11:26:12 AM 39.5392 -94.4739 49° Northeast 318 366 10,600 2,323 Climbing Kansas City Center
Mon 11:27:15 AM 39.6169 -94.3572 49° Northeast 386 444 13,000 2,488 Climbing Kansas City Center
Mon 11:28:15 AM 39.6850 -94.2508 50° Northeast 398 458 15,700 2,758 Climbing Kansas City Center
Mon 11:29:19 AM 39.7681 -94.1200 50° Northeast 420 483 18,700 2,468 Climbing Kansas City Center
Mon 11:30:19 AM 39.8478 -93.9867 52° Northeast 441 507 20,800 1,935 Climbing Kansas City Center
Mon 11:31:23 AM 39.8869 -93.8278 72° East 464 534 22,700 1,824 Climbing Kansas City Center
Mon 11:32:24 AM 39.9242 -93.6656 73° East 472 543 24,600 1,728 Climbing Kansas City Center
Mon 11:33:28 AM 39.9597 -93.4958 75° East 486 559 26,300 1,548 Climbing Kansas City Center
Mon 11:34:28 AM 39.9969 -93.3233 74° East 497 572 27,800 1,770 Climbing Kansas City Center
Mon 11:35:30 AM 40.0428 -93.1125 74° East 506 582 29,900 1,524 Climbing Kansas City Center
Mon 11:36:34 AM 40.0781 -92.9439 75° East 501 577 31,000 532 Climbing Kansas City Center
Mon 11:37:34 AM 40.1175 -92.7447 75° East 504 580 31,000  Level Kansas City Center
Mon 11:38:38 AM 40.1519 -92.5750 75° East 503 579 31,000  Level Kansas City Center
Mon 11:39:39 AM 40.1886 -92.4078 74° East 499 574 31,000  Level Kansas City Center
Mon 11:40:40 AM 40.2261 -92.2128 76° East 505 581 31,000  Level Kansas City Center
Mon 11:41:44 AM 40.2608 -92.0386 75° East 503 579 31,000  Level Kansas City Center
Mon 11:42:45 AM 40.2950 -91.8628 76° East 504 580 31,000  Level Kansas City Center
Mon 11:43:48 AM 40.3350 -91.6503 76° East 505 581 31,000  Level Kansas City Center
Mon 11:44:49 AM 40.3703 -91.4744 75° East 505 581 31,000 -111 Level Kansas City Center
Mon 11:45:36 AM 40.3975 -91.3328 76° East 504 580 30,800 -716 Descending Chicago Center
Mon 11:46:38 AM 40.4294 -91.1617 76° East 500 575 29,700 -1,016 Descending Chicago Center
Mon 11:47:40 AM 40.4561 -90.9903 78° East 483 556 28,700 -976 Descending Chicago Center
Mon 11:48:41 AM 40.4575 -90.8208 89° East 467 537 27,700 -1,073 Descending Chicago Center
Mon 11:49:43 AM 40.5275 -90.6400 63° Northeast 462 532 26,500 -1,065 Descending Chicago Center
Mon 11:50:45 AM 40.5914 -90.4961 60° Northeast 457 526 25,500 -871 Descending Chicago Center
Mon 11:51:47 AM 40.6594 -90.3453 59° Northeast 476 548 24,700 -878 Descending Chicago Center
Mon 11:52:48 AM 40.7314 -90.1875 59° Northeast 486 559 23,700 -976 Descending Chicago Center
Mon 11:53:50 AM 40.7978 -90.0383 60° Northeast 477 549 22,700 -968 Descending Chicago Center
Mon 11:54:52 AM 40.8650 -89.8903 59° Northeast 470 541 21,700 -968 Descending Chicago Center
Mon 11:55:54 AM 40.9286 -89.7444 60° Northeast 459 528 20,700 -1,306 Descending Chicago Center
Mon 11:56:56 AM 40.9914 -89.6017 60° Northeast 451 519 19,000 -1,805 Descending Chicago Center
Mon 11:57:57 AM 41.0569 -89.4550 59° Northeast 439 505 17,000 -1,317 Descending Chicago Center
Mon 11:58:59 AM 41.1156 -89.3222 60° Northeast 420 483 16,300 -1,210 Descending Chicago Center
Mon 12:00:01 PM 41.1778 -89.1775 60° Northeast 403 464 14,500 -1,790 Descending Chicago Center
Mon 12:01:03 PM 41.2331 -89.0531 59° Northeast 395 455 12,600 -1,839 Descending Chicago Center
Mon 12:02:05 PM 41.2850 -88.9289 61° Northeast 387 445 10,700 -1,268 Descending Chicago Center
Mon 12:03:06 PM 41.3342 -88.8153 60° Northeast 360 414 10,000 -1,073 Descending Chicago Center
Mon 12:04:08 PM 41.3842 -88.6931 61° Northeast 317 365 8,500 -1,403 Descending Chicago Center
Mon 12:05:10 PM 41.4081 -88.5858 73° East 305 351 7,100 -1,065 Descending Chicago Center
Mon 12:06:12 PM 41.4317 -88.4767 74° East 307 353 6,300 -634 Descending Chicago Center
Mon 12:07:13 PM 41.4547 -88.3689 74° East 304 350 5,800 -634 Descending Chicago Center
Mon 12:08:15 PM 41.4764 -88.2622 75° East 300 345 5,000 -387 Descending Chicago Center
Mon 12:09:17 PM 41.4983 -88.1611 74° East 287 330 5,000  Level Chicago Center
Mon 12:10:19 PM 41.5208 -88.0564 74° East 288 331 5,000  Level Chicago Center
Mon 12:11:21 PM 41.5439 -87.9506 74° East 292 336 5,000 -439 Level Chicago Center
Mon 12:12:22 PM 41.5692 -87.8242 75° East 293 337 4,100 -976 Descending Chicago Center
Mon 12:13:24 PM 41.5919 -87.7211 74° East 292 336 3,000 -600 Descending Chicago Center
Mon 12:14:12 PM 41.6333 -87.6500 52° Northeast 256 295 3,000 -222 Level Chicago TRACON
Mon 12:15:12 PM 41.6833 -87.6167 26° Northeast 245 282 2,600 -395 Descending Chicago TRACON
Mon 12:15:28 PM 41.6919 -87.6275 317° Northwest 251 289 2,500 -400 Descending Chicago Center
Mon 12:16:12 PM 41.7167 -87.6667 310° West 198 228 2,200 -514 Descending Chicago TRACON
Mon 12:17:13 PM 41.7667 -87.7000 334° Northwest 181 208 1,600 -446 Descending Chicago TRACON
Mon 12:18:13 PM 41.8167 -87.7000 360° North 176 203 1,300 -300 Descending Chicago TRACON

Login

Don't have an account? Register now (free) for customized features, flight alerts, and more!